Time;durP1;ratioP1;P1;durP2;ratioP2;P2;SDS_P1;SDS_P2;PMS_P1;PMS_P2;Temp;Humidity;BMP_temperature;BMP_pressure;BME280_temperature;BME280_humidity;BME280_pressure;Samples;Min_cycle;Max_cycle;Signal;HPM_P1;HPM_P2
2021/05/12 00:00:30;;;;;;;14.10;10.20;;;;;;;13.88;85.27;99835.94;5069523;28;20044;-85
2021/05/12 00:02:58;;;;;;;11.90;9.68;;;;;;;13.84;85.08;99842.44;5047762;28;20500;-84
2021/05/12 00:05:28;;;;;;;13.48;9.85;;;;;;;13.87;84.48;99844.03;5057515;28;20128;-84
2021/05/12 00:07:57;;;;;;;15.35;10.02;;;;;;;13.84;85.08;99834.47;5053974;28;20057;-84
2021/05/12 00:10:25;;;;;;;13.73;10.60;;;;;;;13.86;84.47;99837.84;5033229;28;20052;-85
2021/05/12 00:12:52;;;;;;;11.88;10.13;;;;;;;13.85;84.83;99841.47;5059645;28;20072;-83
2021/05/12 00:15:23;;;;;;;13.43;10.43;;;;;;;13.83;83.80;99837.22;5057029;28;20045;-84
2021/05/12 00:17:51;;;;;;;13.65;10.30;;;;;;;13.87;83.73;99844.88;5059477;28;20175;-84
2021/05/12 00:20:26;;;;;;;13.07;10.52;;;;;;;13.82;83.85;99833.72;5062586;28;20057;-85
2021/05/12 00:23:01;;;;;;;12.68;9.38;;;;;;;13.79;83.07;99838.41;5066436;28;20076;-86
2021/05/12 00:25:28;;;;;;;13.05;9.88;;;;;;;13.78;83.70;99834.88;5066436;28;20052;-85
2021/05/12 00:27:56;;;;;;;16.02;10.80;;;;;;;13.75;83.75;99829.75;5067810;28;20448;-85
2021/05/12 00:30:23;;;;;;;11.20;10.10;;;;;;;13.81;83.10;99841.81;5046719;28;20049;-87
2021/05/12 00:32:50;;;;;;;14.35;11.27;;;;;;;13.81;83.03;99840.00;5050655;28;20044;-87
2021/05/12 00:35:17;;;;;;;14.27;10.32;;;;;;;13.73;83.57;99842.31;5071120;28;20093;-87
2021/05/12 00:37:45;;;;;;;14.52;10.00;;;;;;;13.73;83.58;99836.16;5055519;28;20040;-87
2021/05/12 00:40:14;;;;;;;14.02;9.85;;;;;;;13.70;83.48;99843.38;5070236;28;20041;-87
2021/05/12 00:42:42;;;;;;;11.70;10.20;;;;;;;13.68;83.31;99829.34;5058384;28;20076;-86
2021/05/12 00:45:13;;;;;;;11.70;10.32;;;;;;;13.70;83.48;99839.88;5047682;28;20056;-86
2021/05/12 00:47:42;;;;;;;;;;;;;;;13.66;83.04;99833.06;5061061;28;20117;-85
2021/05/12 00:50:10;;;;;;;11.38;9.30;;;;;;;13.62;83.27;99836.88;5065700;28;19909;-86
2021/05/12 00:52:37;;;;;;;13.13;8.75;;;;;;;13.56;83.60;99827.50;5059332;28;20079;-87
2021/05/12 00:55:07;;;;;;;11.75;8.23;;;;;;;13.57;83.43;99831.03;5048983;28;20053;-85
2021/05/12 00:57:37;;;;;;;10.35;8.60;;;;;;;13.53;82.95;99825.09;5058029;28;20072;-85
2021/05/12 01:00:06;;;;;;;12.57;8.32;;;;;;;13.56;83.00;99837.28;5038259;28;20054;-86
2021/05/12 01:02:33;;;;;;;10.35;7.63;;;;;;;13.54;83.09;99841.88;5033956;28;20055;-87
2021/05/12 01:05:01;;;;;;;10.57;8.00;;;;;;;13.54;83.22;99841.88;5050951;28;20067;-86
2021/05/12 01:07:27;;;;;;;8.50;7.60;;;;;;;13.58;83.07;99846.03;5049440;28;20103;-86
2021/05/12 01:09:54;;;;;;;11.52;7.95;;;;;;;13.61;82.75;99851.16;5046311;28;20049;-86
2021/05/12 01:12:23;;;;;;;11.90;8.13;;;;;;;13.59;82.51;99848.59;5040196;28;20048;-84
2021/05/12 01:14:49;;;;;;;10.55;7.65;;;;;;;13.59;82.47;99856.56;5052872;28;20120;-84
2021/05/12 01:17:16;;;;;;;11.70;7.80;;;;;;;13.60;82.62;99858.28;5049557;28;20052;-87
2021/05/12 01:19:44;;;;;;;11.00;7.20;;;;;;;13.61;82.90;99857.31;5034417;28;20409;-85
2021/05/12 01:22:10;;;;;;;10.23;7.25;;;;;;;13.54;82.89;99849.84;5047499;28;20053;-86
2021/05/12 01:24:37;;;;;;;10.07;7.00;;;;;;;13.59;83.02;99861.03;5051896;28;20112;-86
2021/05/12 01:27:07;;;;;;;11.02;7.32;;;;;;;13.57;82.50;99860.28;5040754;28;20084;-84
2021/05/12 01:29:33;;;;;;;11.13;7.13;;;;;;;13.54;82.06;99850.69;5042543;28;20045;-84
2021/05/12 01:32:04;;;;;;;8.35;6.55;;;;;;;13.54;82.23;99855.16;5037205;28;20048;-86
2021/05/12 01:34:31;;;;;;;12.23;7.07;;;;;;;13.56;82.36;99856.78;5031090;28;20372;-85
2021/05/12 01:36:57;;;;;;;8.73;6.55;;;;;;;13.54;82.33;99864.00;5047917;28;20104;-86
2021/05/12 01:39:26;;;;;;;9.88;7.25;;;;;;;13.51;82.46;99866.88;5056857;28;20056;-85
2021/05/12 01:41:58;;;;;;;9.02;6.93;;;;;;;13.47;83.78;99861.88;5054262;28;20120;-85
2021/05/12 01:44:24;;;;;;;9.05;6.43;;;;;;;13.50;84.33;99869.66;5055458;28;20443;-85
2021/05/12 01:46:51;;;;;;;6.60;5.88;;;;;;;13.44;84.94;99872.72;5051492;28;20120;-86
2021/05/12 01:49:20;;;;;;;8.23;5.78;;;;;;;13.44;85.45;99870.91;5054187;28;20053;-85
2021/05/12 01:51:49;;;;;;;7.80;5.50;;;;;;;13.43;85.99;99874.50;5053188;28;20055;-85
2021/05/12 01:54:16;;;;;;;9.57;5.72;;;;;;;13.42;86.05;99877.28;5063018;28;20075;-86
2021/05/12 01:56:43;;;;;;;6.43;5.70;;;;;;;13.33;86.60;99870.78;5051778;28;20072;-86
2021/05/12 01:59:11;;;;;;;8.02;4.78;;;;;;;13.35;86.77;99874.19;5046215;28;20040;-85
2021/05/12 02:01:38;;;;;;;8.80;4.43;;;;;;;13.29;86.77;99866.59;5052722;28;20058;-85
2021/05/12 02:04:07;;;;;;;6.03;4.68;;;;;;;13.34;86.70;99870.69;5055225;28;20045;-84
2021/05/12 02:06:35;;;;;;;7.28;4.20;;;;;;;13.34;86.75;99872.47;5045339;28;20140;-86
2021/05/12 02:09:06;;;;;;;8.40;3.85;;;;;;;13.31;86.30;99878.00;5041947;28;20108;-85
2021/05/12 02:11:35;;;;;;;8.88;3.80;;;;;;;13.28;86.42;99871.06;5062720;28;20192;-86
2021/05/12 02:14:04;;;;;;;5.63;3.87;;;;;;;13.28;86.41;99879.06;5051242;28;20041;-84
2021/05/12 02:16:34;;;;;;;6.55;3.17;;;;;;;13.31;86.38;99878.84;5051660;28;20049;-85
2021/05/12 02:19:01;;;;;;;7.20;3.05;;;;;;;13.34;85.57;99886.63;5042298;28;20534;-87
2021/05/12 02:21:28;;;;;;;4.70;2.70;;;;;;;13.33;85.32;99871.63;5033706;28;20115;-86
2021/05/12 02:23:55;;;;;;;4.53;3.00;;;;;;;13.32;85.31;99891.19;5050374;28;20059;-85
2021/05/12 02:26:21;;;;;;;6.38;3.30;;;;;;;13.28;85.42;99883.50;5038123;28;20492;-85
2021/05/12 02:28:48;;;;;;;4.50;3.10;;;;;;;13.24;86.16;99884.66;5043287;28;20477;-86
2021/05/12 02:31:15;;;;;;;8.00;3.50;;;;;;;13.25;85.96;99881.06;5051093;28;20102;-86
2021/05/12 02:33:42;;;;;;;6.07;3.45;;;;;;;13.22;86.18;99889.25;5034013;28;20124;-85
2021/05/12 02:36:28;;;;;;;7.57;3.20;;;;;;;13.22;86.10;99881.28;5059116;28;20045;-87
2021/05/12 02:38:55;;;;;;;6.40;3.33;;;;;;;13.21;86.04;99882.22;5062475;28;20055;-87
2021/05/12 02:41:23;;;;;;;7.40;3.25;;;;;;;13.15;86.38;99872.84;5068223;28;20049;-85
2021/05/12 02:43:50;;;;;;;5.93;2.88;;;;;;;13.10;86.33;99858.09;5051908;28;20053;-85
2021/05/12 02:46:19;;;;;;;4.65;3.10;;;;;;;13.23;85.76;99880.28;5052065;28;20057;-87
2021/05/12 02:48:48;;;;;;;6.75;3.40;;;;;;;13.18;85.96;99883.28;5041103;28;20033;-85
2021/05/12 02:51:15;;;;;;;6.10;2.72;;;;;;;13.20;85.92;99869.88;5074224;28;20044;-86
2021/05/12 02:53:47;;;;;;;5.45;3.00;;;;;;;13.20;85.76;99873.41;5062860;28;20398;-86
2021/05/12 02:56:19;;;;;;;5.68;2.80;;;;;;;13.18;86.23;99871.78;5040332;28;20095;-87
2021/05/12 02:58:50;;;;;;;5.93;2.70;;;;;;;13.16;85.15;99877.22;5053252;28;20056;-84
2021/05/12 03:01:20;;;;;;;6.05;2.67;;;;;;;13.17;85.42;99886.03;5049660;28;20163;-85
2021/05/12 03:03:48;;;;;;;4.18;2.90;;;;;;;13.16;85.25;99887.00;5050988;28;20045;-86
2021/05/12 03:06:15;;;;;;;5.70;3.03;;;;;;;13.13;85.12;99888.00;5054327;28;20092;-85
2021/05/12 03:08:42;;;;;;;6.22;3.10;;;;;;;13.15;86.04;99887.94;5051105;28;20047;-85
2021/05/12 03:11:12;;;;;;;4.78;3.10;;;;;;;13.14;85.35;99880.88;5055326;28;20073;-85
2021/05/12 03:13:39;;;;;;;6.38;3.28;;;;;;;13.11;85.40;99886.41;5062227;28;20059;-83
2021/05/12 03:16:05;;;;;;;5.00;3.00;;;;;;;13.08;85.88;99882.13;5061307;28;20063;-85
2021/05/12 03:18:35;;;;;;;5.32;3.03;;;;;;;13.12;85.40;99893.41;5070140;28;20029;-85
2021/05/12 03:21:03;;;;;;;4.50;2.83;;;;;;;13.12;84.83;99883.63;5057039;28;20072;-85
2021/05/12 03:23:29;;;;;;;5.95;2.92;;;;;;;13.14;84.79;99892.38;5036143;28;20518;-85
2021/05/12 03:25:56;;;;;;;4.20;2.80;;;;;;;13.05;84.92;99878.84;5050655;28;20049;-84
2021/05/12 03:28:23;;;;;;;6.15;2.60;;;;;;;13.08;84.68;99884.78;5049414;28;20059;-85
2021/05/12 03:30:54;;;;;;;3.72;2.78;;;;;;;13.09;84.55;99881.16;5049576;28;20380;-83
2021/05/12 03:33:21;;;;;;;5.75;2.50;;;;;;;13.10;84.28;99874.91;5048155;28;20056;-83
2021/05/12 03:35:48;;;;;;;5.90;2.75;;;;;;;13.10;84.35;99872.25;5061333;28;20452;-85
2021/05/12 03:38:15;;;;;;;4.05;2.78;;;;;;;13.17;83.66;99880.72;5050138;28;20473;-85
2021/05/12 03:40:43;;;;;;;5.57;2.78;;;;;;;13.12;83.31;99878.31;5053291;28;20045;-84
2021/05/12 03:43:17;;;;;;;5.47;2.47;;;;;;;13.08;83.19;99865.31;5049936;28;20037;-84
2021/05/12 03:45:44;;;;;;;4.53;2.80;;;;;;;13.10;83.44;99876.72;5053610;28;20045;-85
2021/05/12 03:48:12;;;;;;;6.00;2.83;;;;;;;13.10;83.68;99879.38;5060705;28;20049;-85
2021/05/12 03:50:40;;;;;;;5.90;2.90;;;;;;;13.06;83.87;99880.53;5052192;28;20396;-86
2021/05/12 03:53:07;;;;;;;5.00;3.00;;;;;;;13.06;83.95;99884.06;5057320;28;20053;-86
2021/05/12 03:55:35;;;;;;;6.00;2.95;;;;;;;13.09;84.03;99893.59;5062790;28;20481;-85
2021/05/12 03:58:03;;;;;;;6.30;3.17;;;;;;;13.10;83.04;99890.00;5057812;28;20060;-87
2021/05/12 04:00:31;;;;;;;6.78;3.53;;;;;;;13.11;83.30;99883.75;5062485;28;20283;-86
2021/05/12 04:03:00;;;;;;;7.43;3.20;;;;;;;13.09;82.71;99893.59;5052746;28;20468;-85
2021/05/12 04:05:26;;;;;;;7.95;3.35;;;;;;;13.06;82.80;99900.00;5052207;28;20053;-86
2021/05/12 04:07:53;;;;;;;5.63;3.22;;;;;;;13.05;82.84;99908.06;5048052;28;20045;-86
2021/05/12 04:10:20;;;;;;;6.47;3.50;;;;;;;12.99;83.56;99912.81;5051035;28;20132;-86
2021/05/12 04:12:47;;;;;;;7.20;3.95;;;;;;;13.03;83.72;99925.94;5051535;28;20481;-86
2021/05/12 04:15:15;;;;;;;10.48;6.50;;;;;;;12.96;83.69;99907.72;5052376;28;20076;-86
2021/05/12 04:17:42;;;;;;;6.03;4.50;;;;;;;13.07;83.63;99916.78;5053794;28;20037;-85
2021/05/12 04:20:12;;;;;;;7.85;5.25;;;;;;;13.05;83.12;99911.59;5070421;28;20037;-85
2021/05/12 04:22:39;;;;;;;7.70;5.30;;;;;;;13.08;82.53;99921.16;5046726;28;20108;-86
2021/05/12 04:25:10;;;;;;;9.48;5.28;;;;;;;13.11;82.70;99924.47;5053275;28;20047;-85
2021/05/12 04:27:37;;;;;;;8.25;5.32;;;;;;;13.08;82.41;99922.00;5040390;28;20051;-87
2021/05/12 04:30:09;;;;;;;9.85;6.55;;;;;;;13.12;82.28;99926.16;5060885;28;20049;-86
2021/05/12 04:32:36;;;;;;;8.88;6.38;;;;;;;13.06;82.12;99921.28;5060091;28;20038;-86
2021/05/12 04:35:04;;;;;;;14.00;7.15;;;;;;;13.11;82.10;99918.28;5063917;28;20060;-87
2021/05/12 04:37:32;;;;;;;12.77;7.10;;;;;;;13.09;81.15;99909.56;5055605;28;20072;-86
2021/05/12 04:39:58;;;;;;;11.15;7.70;;;;;;;13.10;81.76;99912.13;5062164;28;20053;-85
2021/05/12 04:42:28;;;;;;;10.90;7.90;;;;;;;13.11;82.12;99913.84;5049277;28;20048;-85
2021/05/12 04:44:54;;;;;;;11.55;8.40;;;;;;;13.18;81.54;99922.31;5061751;28;20076;-84
2021/05/12 04:47:21;;;;;;;12.13;8.52;;;;;;;13.17;81.76;99923.25;5067662;28;20079;-85
2021/05/12 04:49:48;;;;;;;14.05;9.27;;;;;;;13.22;81.49;99934.47;5064776;28;20055;-84
2021/05/12 04:52:15;;;;;;;17.88;10.05;;;;;;;13.18;80.87;99923.16;5054243;28;20080;-84
2021/05/12 04:54:42;;;;;;;14.40;9.38;;;;;;;13.22;81.68;99935.28;5061114;28;20147;-84
2021/05/12 04:57:10;;;;;;;13.35;8.77;;;;;;;13.20;82.87;99937.22;5061092;28;20072;-85
2021/05/12 04:59:36;;;;;;;8.98;7.78;;;;;;;13.22;82.79;99939.78;5050634;28;20567;-86
2021/05/12 05:02:05;;;;;;;9.13;6.43;;;;;;;13.17;82.93;99945.38;5048314;28;20041;-84
2021/05/12 05:04:31;;;;;;;10.25;7.43;;;;;;;13.17;83.67;99944.53;5051671;28;20140;-86
2021/05/12 05:06:58;;;;;;;11.43;7.22;;;;;;;13.09;83.47;99937.00;5048136;28;20133;-85
2021/05/12 05:09:27;;;;;;;13.00;7.93;;;;;;;13.09;83.45;99938.81;5035429;28;20055;-86
2021/05/12 05:11:57;;;;;;;11.82;7.43;;;;;;;13.08;83.73;99945.06;5037377;28;20373;-87
2021/05/12 05:14:24;;;;;;;12.40;8.60;;;;;;;13.11;83.45;99945.72;5053777;28;20132;-86
2021/05/12 05:16:51;;;;;;;14.85;8.93;;;;;;;13.11;82.87;99940.41;5057373;28;20112;-86
2021/05/12 05:19:17;;;;;;;14.93;8.60;;;;;;;13.18;82.76;99943.56;5056672;28;20048;-86
2021/05/12 05:21:44;;;;;;;15.80;8.80;;;;;;;13.19;83.37;99934.66;5051876;28;20567;-87
2021/05/12 05:24:11;;;;;;;14.07;9.45;;;;;;;13.26;82.27;99938.59;5047422;28;20077;-85
2021/05/12 05:26:38;;;;;;;15.63;9.60;;;;;;;13.26;81.94;99933.28;5055222;28;20142;-87
2021/05/12 05:29:06;;;;;;;13.43;9.00;;;;;;;13.25;81.87;99932.44;5060020;28;20041;-87
2021/05/12 05:31:32;;;;;;;15.27;8.55;;;;;;;13.33;82.08;99937.25;5061940;28;20076;-86
2021/05/12 05:33:59;;;;;;;12.00;8.75;;;;;;;13.39;81.28;99947.47;5064332;28;20052;-85
2021/05/12 05:36:28;;;;;;;12.02;8.85;;;;;;;13.47;80.68;99947.84;5058017;28;20053;-85
2021/05/12 05:38:56;;;;;;;10.47;8.47;;;;;;;13.52;80.05;99948.41;5051650;28;20045;-86
2021/05/12 05:41:23;;;;;;;11.60;8.35;;;;;;;13.60;79.96;99954.06;5048458;28;20491;-86
2021/05/12 05:43:52;;;;;;;14.88;9.35;;;;;;;13.59;79.20;99949.69;5048309;28;20041;-86
2021/05/12 05:46:22;;;;;;;;;;;;;;;13.63;78.75;99953.00;5053187;28;20129;-86
2021/05/12 05:48:50;;;;;;;13.05;8.88;;;;;;;13.68;78.79;99948.22;5058136;28;19925;-86
2021/05/12 05:51:24;;;;;;;14.70;8.85;;;;;;;13.71;77.70;99950.66;5061379;28;20069;-86
2021/05/12 05:53:51;;;;;;;15.00;8.82;;;;;;;13.71;77.91;99961.31;5061548;28;20251;-85
2021/05/12 05:56:18;;;;;;;12.98;8.73;;;;;;;13.78;77.54;99951.97;5067190;28;20060;-87
2021/05/12 05:58:45;;;;;;;13.05;8.70;;;;;;;13.71;77.17;99940.03;5068485;28;20048;-85
2021/05/12 06:01:14;;;;;;;13.98;8.63;;;;;;;13.79;77.56;99952.81;5070343;28;20040;-85
2021/05/12 06:03:41;;;;;;;16.50;8.60;;;;;;;13.69;77.80;99942.78;5067972;28;20041;-85
2021/05/12 06:06:08;;;;;;;13.90;9.07;;;;;;;13.69;77.67;99939.31;5068596;28;20110;-85
2021/05/12 06:08:34;;;;;;;12.45;8.77;;;;;;;13.70;77.47;99943.63;5057666;28;20067;-85
2021/05/12 06:11:02;;;;;;;12.80;8.70;;;;;;;13.78;77.81;99953.78;5062298;28;20045;-86
2021/05/12 06:13:29;;;;;;;12.60;9.02;;;;;;;13.76;77.29;99961.88;5052507;28;20114;-86
2021/05/12 06:15:56;;;;;;;13.98;8.52;;;;;;;13.75;76.72;99964.63;5052131;28;20049;-85
2021/05/12 06:18:24;;;;;;;13.45;8.40;;;;;;;13.73;76.51;99969.19;5032202;28;20060;-84
2021/05/12 06:20:51;;;;;;;14.13;9.13;;;;;;;13.75;77.60;99972.59;5033550;28;20211;-84
2021/05/12 06:23:19;;;;;;;13.15;9.00;;;;;;;13.73;77.03;99974.50;5052405;28;20057;-85
2021/05/12 06:25:55;;;;;;;16.10;9.25;;;;;;;13.81;76.13;99988.19;5046994;28;20114;-85
2021/05/12 06:28:22;;;;;;;16.48;8.70;;;;;;;13.86;76.47;100000.19;5031091;28;20468;-84
2021/05/12 06:30:49;;;;;;;10.98;8.35;;;;;;;13.91;76.56;99998.09;5043005;28;20057;-84
2021/05/12 06:33:17;;;;;;;12.48;8.50;;;;;;;13.94;76.92;100005.03;5054431;28;20136;-85
2021/05/12 06:35:45;;;;;;;14.45;8.18;;;;;;;13.96;77.37;100005.78;5051976;28;20037;-85
2021/05/12 06:38:15;;;;;;;11.50;8.00;;;;;;;13.93;76.16;100001.50;5052610;28;20044;-86
2021/05/12 06:40:41;;;;;;;11.48;7.60;;;;;;;13.97;77.13;100005.69;5068553;28;20053;-85
2021/05/12 06:43:08;;;;;;;16.00;8.25;;;;;;;14.03;76.81;100009.72;5069767;28;20148;-87
2021/05/12 06:45:35;;;;;;;13.63;7.88;;;;;;;14.09;76.50;100011.97;5069323;28;20042;-86
2021/05/12 06:48:05;;;;;;;11.20;7.55;;;;;;;14.22;75.31;100012.00;5053889;28;20048;-86
2021/05/12 06:50:33;;;;;;;10.57;7.00;;;;;;;14.31;74.65;100001.59;5067592;28;20116;-84
2021/05/12 06:53:01;;;;;;;11.73;7.00;;;;;;;14.51;73.54;100007.38;5060476;28;20086;-86
2021/05/12 06:55:28;;;;;;;11.75;6.88;;;;;;;14.74;73.16;99990.63;5053301;28;20075;-85
2021/05/12 06:57:59;;;;;;;11.90;7.35;;;;;;;15.17;73.21;99992.91;5051533;28;20045;-86
2021/05/12 07:00:26;;;;;;;10.55;6.45;;;;;;;16.21;69.04;99997.56;5056077;28;20554;-85
2021/05/12 07:02:54;;;;;;;11.70;6.00;;;;;;;16.79;68.11;99991.25;5049294;28;20092;-85
2021/05/12 07:05:21;;;;;;;8.45;6.13;;;;;;;16.97;64.36;99980.91;5049164;28;20060;-86
2021/05/12 07:07:48;;;;;;;8.73;5.45;;;;;;;17.14;63.28;99976.88;5048851;28;20234;-85
2021/05/12 07:10:16;;;;;;;9.85;5.45;;;;;;;17.22;63.65;99990.47;5054209;28;20067;-86
2021/05/12 07:12:43;;;;;;;11.73;5.72;;;;;;;17.23;63.05;99981.47;5050967;28;20133;-85
2021/05/12 07:15:15;;;;;;;8.82;5.80;;;;;;;17.36;60.76;99984.00;5058607;28;20045;-85
2021/05/12 07:17:42;;;;;;;9.35;5.82;;;;;;;17.36;59.98;99976.81;5052635;28;20098;-86
2021/05/12 07:20:10;;;;;;;10.18;5.68;;;;;;;17.34;60.49;99980.59;5049020;28;20087;-85
2021/05/12 07:22:37;;;;;;;10.38;6.07;;;;;;;17.58;60.33;99983.97;5068276;28;20076;-86
2021/05/12 07:25:05;;;;;;;8.63;5.72;;;;;;;17.91;58.66;99971.44;5062630;28;20066;-86
2021/05/12 07:27:33;;;;;;;9.05;5.05;;;;;;;18.41;56.86;99980.56;5050925;28;20044;-85
2021/05/12 07:30:00;;;;;;;7.95;5.18;;;;;;;18.66;55.29;99979.31;5071491;28;20100;-85
2021/05/12 07:32:27;;;;;;;9.23;4.90;;;;;;;18.93;53.72;99987.59;5072741;28;20041;-86
2021/05/12 07:34:53;;;;;;;6.40;4.65;;;;;;;19.16;53.55;99982.91;5068987;28;20101;-84
2021/05/12 07:37:21;;;;;;;8.10;4.78;;;;;;;19.40;52.56;99978.00;5052451;28;20155;-85
2021/05/12 07:39:48;;;;;;;8.70;5.03;;;;;;;19.79;50.71;99980.78;5072351;28;20044;-85
2021/05/12 07:42:17;;;;;;;7.32;4.43;;;;;;;20.02;50.23;99986.72;5066954;28;20076;-86
2021/05/12 07:44:46;;;;;;;10.98;4.97;;;;;;;20.29;49.10;99982.31;5056073;28;20045;-85
2021/05/12 07:47:14;;;;;;;5.88;4.13;;;;;;;20.61;48.09;99984.69;5076053;28;20049;-85
2021/05/12 07:49:42;;;;;;;8.23;4.45;;;;;;;21.00;46.33;99977.31;5074589;28;20083;-85
2021/05/12 07:52:15;;;;;;;8.05;3.95;;;;;;;21.42;45.27;99971.44;5076206;28;20105;-85
2021/05/12 07:54:47;;;;;;;4.95;3.50;;;;;;;21.92;43.72;99982.56;5070286;28;20037;-83
2021/05/12 07:57:15;;;;;;;7.50;3.60;;;;;;;22.24;43.63;99975.78;5074810;28;20053;-83
2021/05/12 07:59:42;;;;;;;7.55;3.30;;;;;;;22.54;43.28;99982.56;5073838;28;20059;-82
2021/05/12 08:02:09;;;;;;;6.85;3.47;;;;;;;22.18;42.29;99973.72;5050579;28;20114;-85
2021/05/12 08:04:36;;;;;;;5.60;2.92;;;;;;;22.04;43.12;99978.63;5046421;28;20476;-84
2021/05/12 08:07:05;;;;;;;6.47;3.13;;;;;;;21.97;43.48;99979.41;5032869;28;20052;-87
2021/05/12 08:09:32;;;;;;;6.40;3.50;;;;;;;22.09;42.86;99972.78;5053674;28;20116;-84
2021/05/12 08:11:59;;;;;;;5.93;2.80;;;;;;;22.10;41.90;99976.34;5055829;28;20073;-83
2021/05/12 08:14:26;;;;;;;5.90;3.33;;;;;;;21.86;42.48;99983.19;5038619;28;20112;-86
2021/05/12 08:16:52;;;;;;;5.00;2.95;;;;;;;21.47;42.67;99981.75;5051413;28;20049;-84
2021/05/12 08:19:22;;;;;;;4.30;3.03;;;;;;;21.01;44.55;99986.22;5046984;28;20057;-86
2021/05/12 08:21:49;;;;;;;5.88;3.28;;;;;;;20.51;44.74;99966.84;5049628;28;20048;-84
2021/05/12 08:24:17;;;;;;;8.30;3.45;;;;;;;20.07;46.03;99989.81;5051169;28;20055;-84
2021/05/12 08:26:45;;;;;;;6.32;3.22;;;;;;;19.64;47.34;99983.03;5037229;28;20573;-85
2021/05/12 08:29:14;;;;;;;8.70;3.00;;;;;;;19.31;48.31;99986.06;5052906;28;20407;-83
2021/05/12 08:31:45;;;;;;;7.30;3.00;;;;;;;18.97;49.16;99978.31;5052589;28;20049;-84
2021/05/12 08:34:13;;;;;;;7.05;3.17;;;;;;;18.82;49.29;99983.19;5054695;28;20065;-84
2021/05/12 08:36:39;;;;;;;6.28;2.95;;;;;;;18.75;50.01;99983.84;5060687;28;20073;-84
2021/05/12 08:39:07;;;;;;;5.00;2.80;;;;;;;18.64;49.00;99992.00;5057948;28;20045;-84
2021/05/12 08:41:51;;;;;;;6.10;3.10;;;;;;;18.55;49.49;99982.91;5059893;28;20072;-85
2021/05/12 08:44:25;;;;;;;7.80;3.10;;;;;;;18.57;50.03;99980.94;5055803;28;20045;-84
2021/05/12 08:46:53;;;;;;;7.40;4.05;;;;;;;18.40;49.20;99958.25;5056714;28;20138;-84
2021/05/12 08:49:22;;;;;;;6.40;3.03;;;;;;;18.55;50.31;99973.03;5063599;28;20053;-84
2021/05/12 08:51:49;;;;;;;8.63;2.97;;;;;;;18.69;50.11;99984.41;5061929;28;20049;-85
2021/05/12 08:54:16;;;;;;;6.22;3.00;;;;;;;18.74;49.44;99984.84;5045901;28;20041;-85
2021/05/12 08:56:43;;;;;;;8.38;3.45;;;;;;;18.77;46.75;99973.84;5045617;28;20063;-85
2021/05/12 08:59:15;;;;;;;6.10;2.88;;;;;;;18.70;49.04;99980.75;5051239;28;20049;-86
2021/05/12 09:01:42;;;;;;;5.10;2.97;;;;;;;18.77;49.09;99972.00;5063652;28;20049;-86
2021/05/12 09:04:09;;;;;;;6.13;2.97;;;;;;;18.96;47.93;99973.09;5068494;28;20079;-86
2021/05/12 09:06:38;;;;;;;4.78;2.58;;;;;;;19.11;48.08;99964.53;5054807;28;20052;-85
2021/05/12 09:09:07;;;;;;;3.75;2.40;;;;;;;19.10;48.35;99968.19;5070650;28;20071;-84
2021/05/12 09:11:37;;;;;;;4.18;2.60;;;;;;;19.16;47.53;99964.13;5070156;28;20051;-86
2021/05/12 09:14:25;;;;;;;6.47;2.70;;;;;;;19.14;46.47;99968.75;5060326;28;20052;-85
2021/05/12 09:16:52;;;;;;;4.97;2.90;;;;;;;19.17;47.57;99973.88;5052727;28;21209;-85
2021/05/12 09:19:25;;;;;;;7.10;2.65;;;;;;;19.09;47.54;99974.53;5056183;28;20068;-85
2021/05/12 09:22:42;;;;;;;4.38;2.28;;;;;;;19.09;47.84;99968.31;5063288;28;20037;-86
2021/05/12 09:25:16;;;;;;;4.82;2.30;;;;;;;19.21;47.20;99970.75;5058322;28;20053;-85
2021/05/12 09:27:49;;;;;;;4.45;2.10;;;;;;;19.05;46.89;99959.69;5067383;28;20106;-85
2021/05/12 09:30:22;;;;;;;4.72;2.42;;;;;;;19.06;46.38;99961.38;5063878;28;20056;-85
2021/05/12 09:32:51;;;;;;;4.22;2.17;;;;;;;19.06;46.37;99964.06;5035123;28;20044;-84
2021/05/12 09:35:23;;;;;;;5.13;2.37;;;;;;;19.07;46.80;99960.41;5035902;28;20076;-84
2021/05/12 09:37:50;;;;;;;2.78;1.65;;;;;;;19.19;47.12;99972.75;5050020;28;20466;-84
2021/05/12 09:40:21;;;;;;;6.18;2.20;;;;;;;19.19;45.86;99967.38;5055399;28;20041;-86
2021/05/12 09:43:01;;;;;;;7.15;1.90;;;;;;;19.42;45.18;99967.13;5034518;28;20136;-83
2021/05/12 09:45:30;;;;;;;4.30;2.20;;;;;;;19.57;44.31;99966.63;5019102;28;20093;-84
2021/05/12 09:47:58;;;;;;;6.00;2.00;;;;;;;19.66;44.48;99966.78;5050671;28;21981;-85
2021/05/12 09:50:36;;;;;;;2.60;1.42;;;;;;;19.72;43.82;99950.09;5049311;28;20682;-85
2021/05/12 09:53:11;;;;;;;4.35;2.13;;;;;;;19.78;44.37;99953.06;5050702;28;20048;-83
2021/05/12 09:55:46;;;;;;;5.47;2.03;;;;;;;19.84;42.65;99949.78;5036188;28;20611;-86
2021/05/12 09:58:18;;;;;;;4.97;1.95;;;;;;;19.84;42.17;99954.31;5037505;28;20079;-85
2021/05/12 10:01:01;;;;;;;6.03;1.83;;;;;;;19.79;41.92;99957.44;5047205;28;20049;-86
2021/05/12 10:03:33;;;;;;;6.25;2.42;;;;;;;19.57;43.03;99952.34;5047269;28;20376;-84
2021/05/12 10:06:02;;;;;;;5.65;2.03;;;;;;;19.53;42.02;99948.22;5052917;28;20052;-85
2021/05/12 10:08:53;;;;;;;4.45;1.90;;;;;;;19.56;42.54;99959.53;5046160;28;20106;-85
2021/05/12 10:11:21;;;;;;;3.97;1.90;;;;;;;19.64;41.89;99950.81;5047049;28;20160;-86
2021/05/12 10:13:48;;;;;;;3.83;1.42;;;;;;;19.81;40.49;99963.53;5040104;28;20698;-85
2021/05/12 10:16:17;;;;;;;6.50;1.80;;;;;;;19.84;39.29;99967.75;5051029;28;20108;-86
2021/05/12 10:18:44;;;;;;;2.90;1.30;;;;;;;19.73;40.78;99962.53;5055620;28;20045;-85
2021/05/12 10:21:12;;;;;;;5.15;1.80;;;;;;;19.75;39.34;99953.34;5041353;28;20041;-86
2021/05/12 10:23:44;;;;;;;4.43;1.45;;;;;;;19.82;40.33;99964.38;5052286;28;20053;-85
2021/05/12 10:26:11;;;;;;;5.60;2.00;;;;;;;19.95;40.19;99964.94;5058790;28;20104;-85
2021/05/12 10:28:39;;;;;;;3.63;1.55;;;;;;;20.07;39.49;99963.81;5064010;28;20099;-88
2021/05/12 10:31:07;;;;;;;3.35;1.70;;;;;;;20.13;40.34;99948.94;5054256;28;20059;-86
2021/05/12 10:33:56;;;;;;;3.63;1.65;;;;;;;20.06;39.54;99955.88;5056999;28;20097;-85
2021/05/12 10:36:26;;;;;;;4.97;1.70;;;;;;;19.89;39.15;99946.69;5074175;28;20049;-87
2021/05/12 10:38:55;;;;;;;5.38;1.88;;;;;;;19.78;39.70;99947.69;5054751;28;20092;-84
2021/05/12 10:41:46;;;;;;;3.70;1.73;;;;;;;19.89;41.25;99952.91;5073663;28;20037;-83
2021/05/12 10:44:35;;;;;;;4.53;1.48;;;;;;;20.08;40.78;99932.41;5073435;28;20056;-85
2021/05/12 10:47:22;;;;;;;5.78;1.83;;;;;;;19.91;39.83;99937.50;5056515;28;20083;-86
2021/05/12 10:49:55;;;;;;;4.28;2.00;;;;;;;19.73;41.18;99938.34;5038319;28;20052;-85
2021/05/12 10:52:21;;;;;;;5.10;1.70;;;;;;;19.99;42.03;99933.28;5052090;28;20147;-85
2021/05/12 10:54:53;;;;;;;4.22;1.80;;;;;;;20.03;41.67;99926.59;5057308;28;21801;-84
2021/05/12 10:57:45;;;;;;;5.07;1.83;;;;;;;20.13;42.14;99935.50;5057343;28;20055;-86
2021/05/12 11:00:14;;;;;;;6.07;1.88;;;;;;;20.17;44.17;99936.91;5059822;28;20053;-85
2021/05/12 11:02:50;;;;;;;4.30;1.80;;;;;;;20.12;43.70;99941.88;5052005;28;20045;-85
2021/05/12 11:05:19;;;;;;;3.60;1.70;;;;;;;20.04;43.11;99923.75;5054852;28;20082;-84
2021/05/12 11:08:20;;;;;;;7.40;1.90;;;;;;;19.82;43.09;99932.16;5042651;28;20069;-85
2021/05/12 11:11:03;;;;;;;5.40;2.95;;;;;;;19.53;43.88;99926.75;4947636;28;20048;-84
2021/05/12 11:13:34;;;;;;;7.05;2.08;;;;;;;19.17;45.05;99925.56;5049357;28;20512;-87
2021/05/12 11:16:04;;;;;;;5.15;2.05;;;;;;;18.93;46.02;99929.44;5049161;28;20057;-83
2021/05/12 11:18:39;;;;;;;4.00;1.75;;;;;;;18.79;47.82;99919.09;5044632;28;20468;-84
2021/05/12 11:21:15;;;;;;;5.78;2.38;;;;;;;18.72;46.87;99922.47;5054567;28;20096;-84
2021/05/12 11:24:05;;;;;;;5.75;2.17;;;;;;;18.43;47.44;99916.91;5068070;28;20037;-84
2021/05/12 11:32:06;;;;;;;6.93;2.55;;;;;;;18.34;48.81;99915.88;5053441;28;20056;-85
2021/05/12 11:34:37;;;;;;;5.78;2.38;;;;;;;18.10;48.43;99907.28;5046789;28;20049;-85
2021/05/12 11:37:10;;;;;;;7.35;1.90;;;;;;;17.97;49.03;99909.31;5040310;28;20048;-84
2021/05/12 11:39:54;;;;;;;6.75;2.85;;;;;;;17.83;49.44;99908.66;5055222;28;20112;-85
2021/05/12 11:42:29;;;;;;;7.35;2.80;;;;;;;17.73;49.71;99907.75;5060149;28;20045;-85
2021/05/12 11:45:09;;;;;;;6.25;2.25;;;;;;;17.60;50.08;99908.88;5029765;28;20096;-85